createdAt,value
2022-11-16T00:02:56.505Z,74.10
2022-11-16T00:05:43.323Z,65.30
2022-11-16T00:08:37.239Z,69.40
2022-11-16T00:11:23.910Z,65.40
2022-11-16T00:14:10.476Z,66.90
2022-11-16T00:16:57.421Z,62.90
2022-11-16T00:19:43.912Z,70.80
2022-11-16T00:22:30.758Z,64.90
2022-11-16T00:25:17.769Z,68.80
2022-11-16T00:28:04.597Z,69.60
2022-11-16T00:30:58.922Z,68.00
2022-11-16T00:33:45.462Z,67.60
2022-11-16T00:36:31.894Z,69.30
2022-11-16T00:39:18.863Z,71.60
2022-11-16T00:42:05.769Z,67.00
2022-11-16T00:44:52.837Z,65.10
2022-11-16T00:47:39.326Z,66.50
2022-11-16T00:50:26.153Z,63.20
2022-11-16T00:53:13.914Z,59.50
2022-11-16T00:56:00.437Z,61.50
2022-11-16T00:58:47.180Z,63.90
2022-11-16T01:01:34.429Z,65.10
2022-11-16T01:04:21.461Z,61.60
2022-11-16T01:07:08.151Z,65.80
2022-11-16T01:09:55.025Z,65.00
2022-11-16T01:12:42.134Z,65.60
2022-11-16T01:15:29.091Z,60.90
2022-11-16T01:18:15.916Z,63.00
2022-11-16T01:21:06.425Z,56.50
2022-11-16T01:23:53.009Z,61.00
2022-11-16T01:26:39.690Z,61.40
2022-11-16T01:29:28.050Z,60.50
2022-11-16T01:32:15.508Z,59.30
2022-11-16T01:35:02.247Z,55.00
2022-11-16T01:37:48.612Z,57.70
2022-11-16T01:40:35.018Z,51.90
2022-11-16T01:43:27.343Z,59.80
2022-11-16T01:46:14.295Z,63.00
2022-11-16T01:49:12.482Z,62.70
2022-11-16T01:52:04.920Z,60.90
2022-11-16T01:54:52.912Z,58.20
2022-11-16T01:57:41.859Z,56.80
2022-11-16T02:00:28.769Z,59.70
2022-11-16T02:03:18.894Z,56.50
2022-11-16T02:06:12.883Z,57.50
2022-11-16T02:09:27.679Z,53.70
2022-11-16T02:12:41.870Z,52.40
2022-11-16T02:15:47.511Z,63.60
2022-11-16T02:19:00.038Z,55.70
2022-11-16T02:21:52.002Z,58.80
2022-11-16T02:25:17.567Z,53.90
2022-11-16T02:28:16.879Z,59.00
2022-11-16T02:31:05.367Z,56.10
2022-11-16T02:33:52.075Z,54.30
2022-11-16T02:36:38.991Z,53.70
2022-11-16T02:39:27.387Z,51.30
2022-11-16T02:42:28.308Z,36.70
2022-11-16T02:45:18.943Z,51.40
2022-11-16T02:48:08.658Z,59.90
2022-11-16T02:50:55.113Z,54.90
2022-11-16T02:53:51.836Z,53.20
2022-11-16T02:56:56.836Z,51.40
2022-11-16T02:59:45.605Z,56.30
2022-11-16T03:02:32.190Z,51.30
2022-11-16T03:05:32.349Z,53.90
2022-11-16T03:08:23.134Z,54.70
2022-11-16T03:11:36.365Z,56.10
2022-11-16T03:14:26.990Z,53.60
2022-11-16T03:17:23.294Z,49.70
2022-11-16T03:20:24.415Z,57.40
2022-11-16T03:23:16.419Z,53.80
2022-11-16T03:26:06.252Z,55.20
2022-11-16T03:29:15.284Z,47.40
2022-11-16T03:32:30.229Z,40.30
2022-11-16T03:35:22.500Z,48.70
2022-11-16T03:38:09.236Z,43.30
2022-11-16T03:41:02.579Z,42.20
2022-11-16T03:43:49.538Z,40.10
2022-11-16T03:51:23.647Z,49.50
2022-11-16T03:54:10.502Z,50.60
2022-11-16T03:56:57.096Z,46.30
2022-11-16T03:59:44.640Z,49.50
2022-11-16T04:02:31.411Z,46.80
2022-11-16T04:05:36.627Z,46.10
2022-11-16T04:08:41.744Z,36.90
2022-11-16T04:11:48.753Z,38.20
2022-11-16T04:14:54.100Z,38.40
2022-11-16T04:17:59.041Z,37.70
2022-11-16T04:21:04.004Z,35.20
2022-11-16T04:24:08.993Z,35.60
2022-11-16T04:27:15.988Z,40.40
2022-11-16T04:30:02.846Z,30.30
2022-11-16T04:33:07.857Z,32.70
2022-11-16T04:36:17.868Z,28.90
2022-11-16T04:39:06.777Z,30.20
2022-11-16T04:42:12.218Z,23.70
2022-11-16T04:45:17.576Z,27.70
2022-11-16T04:48:05.002Z,32.30
2022-11-16T04:50:51.608Z,32.00
2022-11-16T04:53:38.445Z,26.70
2022-11-16T04:56:25.554Z,23.60
2022-11-16T04:59:12.327Z,28.30
2022-11-16T05:02:10.791Z,26.70
2022-11-16T05:04:57.684Z,28.40
2022-11-16T05:07:44.499Z,27.00
2022-11-16T05:10:31.275Z,26.90
2022-11-16T05:13:17.823Z,31.30
2022-11-16T05:16:04.587Z,35.60
2022-11-16T05:19:11.412Z,32.40
2022-11-16T05:21:57.917Z,32.60
2022-11-16T05:24:46.058Z,30.00
2022-11-16T05:27:32.825Z,27.80
2022-11-16T05:30:19.575Z,31.90
2022-11-16T05:33:06.161Z,23.40
2022-11-16T05:35:53.060Z,31.10
2022-11-16T05:38:39.474Z,28.60
2022-11-16T05:41:25.988Z,32.10
2022-11-16T05:44:13.252Z,32.50
2022-11-16T05:47:00.137Z,30.60
2022-11-16T05:49:47.536Z,32.70
2022-11-16T05:52:34.095Z,31.50
2022-11-16T05:55:20.418Z,31.60
2022-11-16T05:58:07.002Z,33.70
2022-11-16T06:00:53.785Z,33.40
2022-11-16T06:03:40.453Z,33.50
2022-11-16T06:06:27.723Z,36.40
2022-11-16T06:09:14.621Z,36.90
2022-11-16T06:12:01.432Z,35.60
2022-11-16T06:14:48.214Z,36.90
2022-11-16T06:17:35.128Z,36.30
2022-11-16T06:20:21.900Z,34.70
2022-11-16T06:23:08.511Z,31.30
2022-11-16T06:25:55.420Z,31.10
2022-11-16T06:28:41.817Z,30.90
2022-11-16T06:31:28.302Z,31.20
2022-11-16T06:34:14.790Z,28.80
2022-11-16T06:37:01.260Z,27.30
2022-11-16T06:39:47.846Z,36.30
2022-11-16T06:42:34.740Z,34.90
2022-11-16T06:45:21.657Z,32.10
2022-11-16T06:48:08.700Z,33.50
2022-11-16T06:50:55.149Z,33.50
2022-11-16T06:53:41.886Z,32.30
2022-11-16T06:56:28.149Z,35.40
2022-11-16T06:59:15.054Z,34.70
2022-11-16T07:02:01.523Z,35.10
2022-11-16T07:04:48.252Z,27.20
2022-11-16T07:07:34.827Z,37.40
2022-11-16T07:10:22.246Z,33.20
2022-11-16T07:13:08.865Z,37.50
2022-11-16T07:16:01.146Z,36.70
2022-11-16T07:18:47.953Z,36.10
2022-11-16T07:21:35.126Z,33.10
2022-11-16T07:24:21.582Z,31.20
2022-11-16T07:27:08.955Z,39.30
2022-11-16T07:29:55.866Z,29.80
2022-11-16T07:32:43.350Z,28.50
2022-11-16T07:35:30.009Z,26.70
2022-11-16T07:38:18.130Z,34.50
2022-11-16T07:41:09.307Z,37.80
2022-11-16T07:43:57.002Z,31.70
2022-11-16T07:46:47.049Z,34.10
2022-11-16T07:49:34.080Z,36.90
2022-11-16T07:52:20.802Z,33.70
2022-11-16T07:55:08.028Z,34.70
2022-11-16T07:57:55.026Z,36.20
2022-11-16T08:00:41.663Z,32.40
2022-11-16T08:03:28.305Z,40.10
2022-11-16T08:06:19.981Z,40.00
2022-11-16T08:09:06.431Z,37.10
2022-11-16T08:11:53.092Z,36.80
2022-11-16T08:14:39.903Z,41.30
2022-11-16T08:17:26.302Z,42.40
2022-11-16T08:20:13.183Z,40.20
2022-11-16T08:23:00.932Z,38.30
2022-11-16T08:25:47.459Z,35.90
2022-11-16T08:28:34.434Z,41.10
2022-11-16T08:31:24.106Z,43.10
2022-11-16T08:34:10.999Z,40.10
2022-11-16T08:36:57.904Z,44.50
2022-11-16T08:39:44.886Z,40.20
2022-11-16T08:42:31.764Z,37.80
2022-11-16T08:45:18.428Z,36.10
2022-11-16T08:48:05.847Z,44.90
2022-11-16T08:51:15.994Z,33.60
2022-11-16T08:53:59.129Z,35.90
2022-11-16T08:56:46.113Z,34.60
2022-11-16T08:59:32.769Z,33.30
2022-11-16T09:02:25.696Z,31.00
2022-11-16T09:05:12.308Z,32.30
2022-11-16T09:07:59.118Z,27.40
2022-11-16T09:10:46.008Z,36.40
2022-11-16T09:13:32.599Z,39.90
2022-11-16T09:16:21.058Z,38.10
2022-11-16T09:19:08.051Z,31.40
2022-11-16T09:21:54.602Z,27.70
2022-11-16T09:24:41.136Z,30.10
2022-11-16T09:27:28.298Z,26.90
2022-11-16T09:30:15.445Z,29.80
2022-11-16T09:33:02.683Z,26.10
2022-11-16T09:35:49.391Z,25.30
2022-11-16T09:39:13.926Z,34.80
2022-11-16T09:41:58.712Z,34.60
2022-11-16T09:44:54.353Z,31.80
2022-11-16T09:47:45.991Z,34.00
2022-11-16T09:50:45.075Z,22.20
2022-11-16T09:53:49.556Z,25.10
2022-11-16T09:56:37.970Z,20.90
2022-11-16T09:59:29.984Z,28.20
2022-11-16T10:02:44.452Z,27.70
2022-11-16T10:06:08.209Z,32.40
2022-11-16T10:08:57.019Z,31.20
2022-11-16T10:12:08.628Z,30.40
2022-11-16T10:15:12.918Z,32.10
2022-11-16T10:18:16.390Z,25.00
2022-11-16T10:21:09.228Z,29.50
2022-11-16T10:24:08.903Z,18.80
2022-11-16T10:27:34.639Z,27.10
2022-11-16T10:30:21.965Z,26.00
2022-11-16T10:33:12.019Z,30.60
2022-11-16T10:35:58.947Z,29.10
2022-11-16T10:38:45.423Z,26.30
2022-11-16T10:41:36.118Z,26.80
2022-11-16T10:44:43.440Z,23.10
2022-11-16T10:47:36.973Z,27.00
2022-11-16T10:50:39.670Z,17.70
2022-11-16T10:53:41.821Z,21.70
2022-11-16T10:56:37.405Z,23.00
2022-11-16T10:59:40.256Z,25.00
2022-11-16T11:02:27.068Z,23.80
2022-11-16T11:05:22.959Z,28.10
2022-11-16T11:08:10.614Z,28.10
2022-11-16T11:11:01.785Z,25.50
2022-11-16T11:14:15.564Z,24.70
2022-11-16T11:17:11.203Z,30.10
2022-11-16T11:20:05.680Z,29.20
2022-11-16T11:22:56.421Z,28.40
2022-11-16T11:25:54.228Z,25.00
2022-11-16T11:28:47.853Z,20.50
2022-11-16T11:31:39.314Z,22.80
2022-11-16T11:34:30.355Z,29.10
2022-11-16T11:37:19.791Z,21.80
2022-11-16T11:40:20.065Z,20.90
2022-11-16T11:43:06.623Z,29.20
2022-11-16T11:46:11.039Z,26.30
2022-11-16T11:49:01.684Z,29.80
2022-11-16T11:51:48.358Z,25.20
2022-11-16T11:54:45.666Z,29.50
2022-11-16T11:57:35.547Z,21.80
2022-11-16T12:00:22.768Z,27.80
2022-11-16T12:03:46.279Z,26.50
2022-11-16T12:06:36.181Z,31.00
2022-11-16T12:09:49.174Z,24.90
2022-11-16T12:12:46.807Z,30.60
2022-11-16T12:16:00.258Z,28.10
2022-11-16T12:23:16.453Z,26.00
2022-11-16T12:26:11.095Z,27.10
2022-11-16T12:28:58.362Z,25.30
2022-11-16T12:31:58.088Z,21.70
2022-11-16T12:35:09.960Z,27.90
2022-11-16T12:38:06.130Z,16.90
2022-11-16T12:41:25.052Z,26.90
2022-11-16T12:44:13.031Z,27.40
2022-11-16T12:47:07.028Z,23.20
2022-11-16T12:50:28.768Z,23.00
2022-11-16T12:53:44.680Z,28.60
2022-11-16T12:56:37.273Z,20.80
2022-11-16T12:59:30.545Z,27.30
2022-11-16T13:02:44.744Z,25.40
2022-11-16T13:05:49.473Z,24.10
2022-11-16T13:08:47.124Z,24.80
2022-11-16T13:11:39.748Z,20.60
2022-11-16T13:14:33.042Z,27.00
2022-11-16T13:17:21.896Z,24.70
2022-11-16T13:20:40.592Z,21.50
2022-11-16T13:23:55.153Z,28.50
2022-11-16T13:26:48.269Z,25.00
2022-11-16T13:29:43.427Z,23.60
2022-11-16T13:32:34.973Z,26.50
2022-11-16T13:35:23.217Z,25.50
2022-11-16T13:38:15.715Z,27.30
2022-11-16T13:41:28.842Z,26.30
2022-11-16T13:44:20.390Z,25.50
2022-11-16T13:47:07.487Z,24.50
2022-11-16T13:49:57.863Z,21.90
2022-11-16T13:55:56.994Z,23.50
2022-11-16T13:58:47.879Z,26.20
2022-11-16T14:04:42.528Z,24.30
2022-11-16T14:07:32.238Z,23.30
2022-11-16T14:10:34.111Z,19.70
2022-11-16T14:13:36.531Z,19.80
2022-11-16T14:19:47.629Z,17.80
2022-11-16T14:23:02.720Z,22.50
2022-11-16T14:26:36.895Z,22.90
2022-11-16T14:29:41.532Z,24.70
2022-11-16T14:32:34.922Z,19.90
2022-11-16T14:35:30.483Z,22.60
2022-11-16T14:38:22.071Z,21.40
2022-11-16T14:41:22.489Z,23.10
2022-11-16T14:44:09.347Z,21.20
2022-11-16T14:46:56.587Z,19.50
2022-11-16T14:49:43.371Z,21.10
2022-11-16T14:52:36.890Z,22.20
2022-11-16T14:55:25.257Z,18.60
2022-11-16T14:58:22.111Z,22.00
2022-11-16T15:01:13.822Z,17.40
2022-11-16T15:04:04.748Z,19.40
2022-11-16T15:09:53.652Z,12.80
2022-11-16T15:12:44.452Z,13.60
2022-11-16T15:15:31.600Z,12.70
2022-11-16T15:18:20.229Z,13.00
2022-11-16T15:21:07.271Z,13.60
2022-11-16T15:24:23.357Z,14.90
2022-11-16T15:27:16.315Z,13.50
2022-11-16T15:30:16.033Z,13.50
2022-11-16T15:33:15.581Z,15.30
2022-11-16T15:36:02.187Z,16.20
2022-11-16T15:38:48.649Z,16.30
2022-11-16T15:41:35.314Z,24.50
2022-11-16T15:44:22.251Z,18.80
2022-11-16T15:47:09.394Z,16.20
2022-11-16T15:49:56.259Z,19.20
2022-11-16T15:52:54.633Z,17.90
2022-11-16T15:55:41.719Z,19.50
2022-11-16T15:58:28.952Z,16.50
2022-11-16T16:01:15.580Z,16.20
2022-11-16T16:04:06.745Z,17.20
2022-11-16T16:06:58.010Z,16.90
2022-11-16T16:09:48.556Z,17.70
2022-11-16T16:12:35.125Z,20.00
2022-11-16T16:15:26.067Z,18.90
2022-11-16T16:18:34.576Z,21.70
2022-11-16T16:21:21.494Z,29.70
2022-11-16T16:24:10.103Z,17.80
2022-11-16T16:26:56.965Z,15.40
2022-11-16T16:29:47.204Z,17.70
2022-11-16T16:32:35.082Z,17.80
2022-11-16T16:35:23.180Z,24.00
2022-11-16T16:38:14.215Z,19.10
2022-11-16T16:41:02.817Z,23.00
2022-11-16T16:43:49.631Z,22.20
2022-11-16T16:46:36.787Z,26.40
2022-11-16T16:49:23.730Z,24.20
2022-11-16T16:52:12.284Z,27.00
2022-11-16T16:54:59.219Z,21.00
2022-11-16T16:57:45.768Z,21.60
2022-11-16T17:00:32.822Z,20.80
2022-11-16T17:03:19.711Z,21.30
2022-11-16T17:06:06.358Z,15.00
2022-11-16T17:08:53.623Z,19.00
2022-11-16T17:11:40.496Z,15.70
2022-11-16T17:14:27.210Z,13.90
2022-11-16T17:17:14.189Z,10.80
2022-11-16T17:20:01.017Z,10.40
2022-11-16T17:22:47.825Z,9.50
2022-11-16T17:25:35.046Z,12.00
2022-11-16T17:28:23.620Z,12.70
2022-11-16T17:31:11.526Z,10.70
2022-11-16T17:33:59.115Z,12.00
2022-11-16T17:36:47.381Z,10.50
2022-11-16T17:39:34.247Z,10.60
2022-11-16T17:42:20.833Z,7.90
2022-11-16T17:45:07.939Z,8.00
2022-11-16T17:47:54.921Z,5.10
2022-11-16T17:50:47.431Z,9.60
2022-11-16T17:53:35.693Z,4.50
2022-11-16T17:56:26.276Z,7.50
2022-11-16T17:59:12.860Z,7.70
2022-11-16T18:01:59.627Z,8.70
2022-11-16T18:04:51.395Z,10.40
2022-11-16T18:07:40.292Z,10.90
2022-11-16T18:10:26.991Z,13.30
2022-11-16T18:13:16.366Z,5.80
2022-11-16T18:16:07.288Z,5.80
2022-11-16T18:19:02.545Z,6.80
2022-11-16T18:21:49.567Z,8.90
2022-11-16T18:24:36.523Z,9.60
2022-11-16T18:27:22.962Z,10.40
2022-11-16T18:30:10.595Z,12.30
2022-11-16T18:32:57.218Z,15.00
2022-11-16T18:35:44.420Z,21.10
2022-11-16T18:38:31.076Z,17.70
2022-11-16T18:41:22.343Z,10.20
2022-11-16T18:44:08.748Z,11.40
2022-11-16T18:46:55.624Z,12.10
2022-11-16T18:49:42.263Z,13.20
2022-11-16T18:52:28.983Z,13.00
2022-11-16T18:55:15.771Z,9.80
2022-11-16T18:58:06.472Z,12.40
2022-11-16T19:01:06.656Z,6.70
2022-11-16T19:03:54.135Z,9.60
2022-11-16T19:06:40.536Z,5.20
2022-11-16T19:09:28.064Z,12.70
2022-11-16T19:12:14.612Z,8.80
2022-11-16T19:15:01.331Z,7.50
2022-11-16T19:18:06.725Z,9.20
2022-11-16T19:21:14.014Z,7.30
2022-11-16T19:24:00.826Z,9.70
2022-11-16T19:26:47.416Z,5.80
2022-11-16T19:29:34.441Z,7.60
2022-11-16T19:32:21.159Z,8.90
2022-11-16T19:35:10.997Z,9.00
2022-11-16T19:37:57.551Z,7.90
2022-11-16T19:40:44.258Z,10.50
2022-11-16T19:43:30.854Z,8.30
2022-11-16T19:46:17.459Z,9.50
2022-11-16T19:49:04.572Z,9.70
2022-11-16T19:51:51.383Z,8.50
2022-11-16T19:54:38.160Z,6.50
2022-11-16T19:57:25.115Z,10.20
2022-11-16T20:00:12.636Z,7.30
2022-11-16T20:02:59.449Z,10.00
2022-11-16T20:05:45.913Z,9.90
2022-11-16T20:08:32.348Z,10.10
2022-11-16T20:11:20.765Z,11.70
2022-11-16T20:14:09.384Z,8.20
2022-11-16T20:16:56.060Z,8.40
2022-11-16T20:19:42.975Z,7.80
2022-11-16T20:22:29.867Z,7.40
2022-11-16T20:25:16.981Z,5.90
2022-11-16T20:28:04.738Z,9.40
2022-11-16T20:30:51.239Z,8.00
2022-11-16T20:33:38.398Z,10.40
2022-11-16T20:36:26.499Z,7.80
2022-11-16T20:39:19.044Z,5.30
2022-11-16T20:42:05.548Z,8.10
2022-11-16T20:44:52.775Z,8.80
2022-11-16T20:47:39.577Z,6.90
2022-11-16T20:50:26.291Z,5.10
2022-11-16T20:53:12.992Z,7.50
2022-11-16T20:56:02.776Z,4.90
2022-11-16T20:58:50.082Z,6.80
2022-11-16T21:01:36.889Z,7.90
2022-11-16T21:04:23.659Z,10.70
2022-11-16T21:07:11.103Z,7.60
2022-11-16T21:10:18.846Z,6.90
2022-11-16T21:13:24.907Z,7.50
2022-11-16T21:16:12.486Z,7.90
2022-11-16T21:18:59.291Z,7.50
2022-11-16T21:21:46.365Z,6.20
2022-11-16T21:24:33.686Z,6.30
2022-11-16T21:27:20.292Z,5.80
2022-11-16T21:30:08.029Z,6.30
2022-11-16T21:32:54.429Z,7.10
2022-11-16T21:35:41.340Z,7.20
2022-11-16T21:38:28.048Z,8.20
2022-11-16T21:41:15.473Z,8.00
2022-11-16T21:44:01.876Z,9.70
2022-11-16T21:46:48.500Z,8.00
2022-11-16T21:49:43.253Z,6.40
2022-11-16T21:52:42.203Z,10.10
2022-11-16T21:55:29.291Z,11.20
2022-11-16T21:58:15.896Z,10.10
2022-11-16T22:01:02.811Z,9.30
2022-11-16T22:04:09.795Z,11.30
2022-11-16T22:07:15.454Z,10.20
2022-11-16T22:10:07.745Z,13.70
2022-11-16T22:12:54.400Z,9.00
2022-11-16T22:15:41.725Z,10.00
2022-11-16T22:18:29.865Z,7.50
2022-11-16T22:21:16.471Z,11.40
2022-11-16T22:24:03.082Z,8.00
2022-11-16T22:26:49.889Z,10.20
2022-11-16T22:29:36.599Z,7.00
2022-11-16T22:32:22.992Z,3.00
2022-11-16T22:35:09.603Z,6.80
2022-11-16T22:37:56.314Z,6.30
2022-11-16T22:40:49.574Z,7.50
2022-11-16T22:43:37.779Z,8.80
2022-11-16T22:46:24.840Z,8.30
2022-11-16T22:49:11.338Z,7.90
2022-11-16T22:51:58.146Z,8.30
2022-11-16T22:54:44.753Z,10.20
2022-11-16T22:57:31.048Z,8.30
2022-11-16T23:00:18.477Z,7.10
2022-11-16T23:03:05.323Z,10.80
2022-11-16T23:05:52.133Z,6.60
2022-11-16T23:08:40.346Z,8.80
2022-11-16T23:11:46.101Z,8.70
2022-11-16T23:14:51.638Z,9.00
2022-11-16T23:17:38.448Z,8.20
2022-11-16T23:20:43.999Z,8.90
2022-11-16T23:23:49.040Z,10.30
2022-11-16T23:26:54.487Z,9.40
2022-11-16T23:29:41.812Z,8.90
2022-11-16T23:32:29.182Z,8.10
2022-11-16T23:35:16.046Z,7.20
2022-11-16T23:38:04.393Z,6.20
2022-11-16T23:40:51.039Z,8.30
2022-11-16T23:43:56.646Z,8.80
2022-11-16T23:46:43.259Z,9.30
2022-11-16T23:49:29.963Z,10.00
2022-11-16T23:52:16.671Z,7.50
2022-11-16T23:55:03.073Z,9.50
2022-11-16T23:57:50.600Z,10.70
